Time;durP1;ratioP1;P1;durP2;ratioP2;P2;SDS_P1;SDS_P2;PMS_P1;PMS_P2;Temp;Humidity;BMP_temperature;BMP_pressure;BME280_temperature;BME280_humidity;BME280_pressure;Samples;Min_cycle;Max_cycle;Signal;HPM_P1;HPM_P2
2023/02/12 00:11:30;;;;;;;22.70;7.70;;;;;;;4.49;96.50;101783.17;682952;1262;138645;-83
2023/02/12 00:26:35;;;;;;;8.70;4.50;;;;;;;4.48;96.37;101817.54;683234;1258;138466;-80
2023/02/12 00:41:38;;;;;;;8.10;2.70;;;;;;;4.43;95.32;101837.64;683001;1260;139187;-81
2023/02/12 00:56:41;;;;;;;13.90;5.00;;;;;;;4.37;93.99;101858.85;682844;1259;138719;-81
2023/02/12 01:11:44;;;;;;;24.60;7.30;;;;;;;4.38;93.93;101859.52;682911;1259;138619;-81
2023/02/12 01:26:47;;;;;;;42.00;12.90;;;;;;;4.16;91.27;101873.11;683166;1260;138394;-81
2023/02/12 01:41:51;;;;;;;8.20;3.10;;;;;;;4.09;90.42;101912.98;682817;1261;139368;-80
2023/02/12 01:56:54;;;;;;;21.10;7.80;;;;;;;4.16;90.27;101944.30;682748;1262;138412;-80
2023/02/12 02:27:23;;;;;;;13.30;7.30;;;;;;;3.84;88.88;101986.17;683172;1263;138855;-82
2023/02/12 02:42:40;;;;;;;26.20;10.30;;;;;;;3.41;88.29;101998.97;682803;1262;138599;-80
2023/02/12 02:57:50;;;;;;;18.20;8.60;;;;;;;2.97;88.11;102006.65;682998;1263;138784;-82
2023/02/12 03:13:08;;;;;;;21.00;9.80;;;;;;;2.64;88.09;102001.70;683086;1262;138749;-82
2023/02/12 03:28:25;;;;;;;19.10;8.40;;;;;;;2.48;88.10;102017.84;683172;1263;139048;-83
2023/02/12 03:43:33;;;;;;;;;;;;;;;2.26;87.61;102046.55;682823;1266;138703;-83
2023/02/12 03:58:38;;;;;;;33.20;14.20;;;;;;;1.92;87.43;102072.23;682811;1262;125516;-82
2023/02/12 04:14:04;;;;;;;33.70;14.90;;;;;;;1.70;87.83;102092.21;683151;1260;139302;-83
2023/02/12 04:29:33;;;;;;;29.90;13.10;;;;;;;1.53;88.33;102102.06;682961;1259;141319;-83
2023/02/12 04:44:39;;;;;;;19.50;10.40;;;;;;;1.41;88.21;102115.41;682838;1262;138937;-83
2023/02/12 04:59:42;;;;;;;19.30;8.90;;;;;;;1.23;87.74;102131.64;682752;1262;138902;-82
2023/02/12 05:14:46;;;;;;;25.90;10.90;;;;;;;1.09;88.27;102142.59;683233;1260;137746;-82
2023/02/12 05:29:49;;;;;;;26.30;10.40;;;;;;;0.89;87.66;102158.28;682931;1262;139255;-82
2023/02/12 05:44:52;;;;;;;24.30;10.50;;;;;;;0.72;87.98;102180.27;682873;1262;138787;-82
2023/02/12 05:59:56;;;;;;;25.80;14.30;;;;;;;0.55;88.21;102200.35;682786;1262;139639;-82
2023/02/12 06:14:59;;;;;;;54.50;21.50;;;;;;;0.48;88.17;102228.01;683163;1260;138732;-82
2023/02/12 06:30:02;;;;;;;53.50;24.20;;;;;;;0.55;88.20;102248.92;683160;1263;139446;-82
2023/02/12 06:45:06;;;;;;;126.60;48.00;;;;;;;0.56;88.87;102258.70;682736;1262;139657;-83
2023/02/12 07:00:10;;;;;;;126.20;54.90;;;;;;;0.93;89.32;102273.14;682648;1263;139025;-84
2023/02/12 07:15:13;;;;;;;164.30;71.10;;;;;;;1.50;88.70;102278.72;683091;1262;138943;-84
2023/02/12 07:30:18;;;;;;;216.40;88.20;;;;;;;2.26;88.84;102275.33;682857;1263;140172;-84
2023/02/12 07:45:22;;;;;;;54.70;28.90;;;;;;;3.21;88.48;102307.17;682763;1262;138885;-84
2023/02/12 08:00:25;;;;;;;138.00;60.40;;;;;;;3.74;87.80;102313.45;682830;1263;139664;-84
2023/02/12 08:15:28;;;;;;;55.40;26.90;;;;;;;4.97;88.30;102322.80;682956;1262;138738;-85
2023/02/12 08:30:34;;;;;;;43.80;21.90;;;;;;;6.21;87.81;102328.50;682930;1263;138508;-86
2023/02/12 08:45:38;;;;;;;53.40;22.80;;;;;;;6.77;85.31;102333.37;682565;1266;138500;-86
2023/02/12 09:00:41;;;;;;;79.70;36.80;;;;;;;7.33;83.72;102328.15;682585;1262;139522;-85
2023/02/12 09:15:45;;;;;;;15.90;5.90;;;;;;;7.25;78.89;102317.52;682825;1264;138366;-85
2023/02/12 09:30:48;;;;;;;11.50;4.90;;;;;;;6.99;77.30;102324.83;682680;1265;139194;-84
2023/02/12 09:46:04;;;;;;;15.40;6.70;;;;;;;7.19;76.79;102344.92;682812;1260;139671;-84
2023/02/12 10:01:13;;;;;;;14.20;5.10;;;;;;;7.26;75.03;102345.84;682549;1263;139247;-83
2023/02/12 10:16:23;;;;;;;19.30;7.30;;;;;;;7.52;75.31;102344.42;682742;1262;138993;-83
2023/02/12 10:31:31;;;;;;;19.40;8.90;;;;;;;7.34;73.51;102336.33;682693;1260;139285;-82
2023/02/12 10:46:34;;;;;;;30.60;15.30;;;;;;;6.88;72.40;102336.74;682687;1264;140136;-83
2023/02/12 11:01:40;;;;;;;89.20;34.70;;;;;;;6.69;72.77;102326.73;682996;1263;140011;-82
2023/02/12 11:16:56;;;;;;;24.20;9.20;;;;;;;6.91;71.18;102321.13;682770;1262;140415;-83
2023/02/12 11:32:07;;;;;;;26.30;12.10;;;;;;;7.42;68.62;102311.77;682777;1260;139608;-83
2023/02/12 11:47:18;;;;;;;14.70;6.80;;;;;;;7.41;67.67;102303.61;682784;1258;139370;-82
2023/02/12 12:02:35;;;;;;;16.10;7.60;;;;;;;7.65;66.94;102285.34;682925;1260;138911;-83
2023/02/12 12:33:37;;;;;;;12.90;5.90;;;;;;;8.17;65.73;102269.27;682740;1260;139454;-81
2023/02/12 12:48:53;;;;;;;11.70;5.80;;;;;;;8.63;64.58;102258.25;682645;1260;138752;-82
2023/02/12 13:04:35;;;;;;;16.30;8.60;;;;;;;8.09;64.31;102240.38;682922;1262;139048;-82
2023/02/12 13:19:53;;;;;;;15.90;7.60;;;;;;;8.44;64.75;102243.09;682963;1263;139670;-81
2023/02/12 13:34:58;;;;;;;14.60;8.30;;;;;;;8.00;65.68;102249.13;682682;1262;138913;-84
2023/02/12 13:50:14;;;;;;;16.70;7.00;;;;;;;7.26;67.71;102239.85;682764;1263;138554;-82
2023/02/12 14:05:25;;;;;;;35.10;15.80;;;;;;;6.42;70.94;102232.34;682771;1263;138676;-81
2023/02/12 14:20:37;;;;;;;22.80;13.90;;;;;;;6.04;73.54;102234.46;682909;1260;139129;-81
2023/02/12 14:35:43;;;;;;;180.10;70.60;;;;;;;5.85;75.30;102222.84;682434;1259;138709;-81
2023/02/12 14:50:50;;;;;;;80.30;35.60;;;;;;;5.66;76.16;102241.39;682754;1264;139837;-82
2023/02/12 15:06:19;;;;;;;46.80;24.00;;;;;;;5.57;77.32;102244.34;683132;1263;139113;-81
2023/02/12 15:21:24;;;;;;;;;;;;;;;5.42;78.96;102208.58;682815;1264;138806;-80
2023/02/12 15:36:30;;;;;;;43.20;20.40;;;;;;;5.43;81.48;102190.84;683128;1263;124857;-82
2023/02/12 15:51:40;;;;;;;42.40;21.00;;;;;;;5.28;85.01;102208.91;682932;1263;139032;-83
2023/02/12 16:06:43;;;;;;;50.60;20.50;;;;;;;5.30;87.00;102209.70;682922;1262;139410;-82
2023/02/12 16:22:13;;;;;;;40.80;19.00;;;;;;;5.36;88.69;102226.13;683015;1260;139870;-83
2023/02/12 16:37:49;;;;;;;43.20;18.20;;;;;;;5.39;90.02;102219.27;682646;1260;138755;-83
2023/02/12 16:53:06;;;;;;;39.20;16.90;;;;;;;5.42;91.83;102197.48;682885;1263;138924;-83
2023/02/12 17:08:15;;;;;;;40.20;20.00;;;;;;;5.53;92.62;102180.27;682936;1259;139298;-83
2023/02/12 17:23:18;;;;;;;47.90;21.40;;;;;;;5.55;94.87;102165.43;682749;1259;138773;-83
2023/02/12 17:38:22;;;;;;;63.50;26.30;;;;;;;5.62;95.16;102165.01;682484;1260;139068;-82
2023/02/12 17:53:28;;;;;;;77.30;33.00;;;;;;;5.65;96.62;102161.92;682787;1259;139326;-82
2023/02/12 18:08:32;;;;;;;60.80;26.70;;;;;;;5.62;98.29;102154.94;683057;1259;139385;-82
2023/02/12 18:23:36;;;;;;;47.40;21.50;;;;;;;5.70;98.67;102146.98;682903;1263;139017;-82
2023/02/12 18:38:41;;;;;;;229.30;56.80;;;;;;;5.74;99.89;102135.54;682862;1263;138655;-81
2023/02/12 18:53:45;;;;;;;32.60;15.80;;;;;;;5.82;100.00;102124.99;682812;1259;139864;-81
2023/02/12 19:08:52;;;;;;;55.10;24.60;;;;;;;5.90;100.00;102120.52;683103;1259;138905;-81
2023/02/12 19:23:57;;;;;;;;;;;;;;;6.06;100.00;102117.34;682823;1261;139923;-82
2023/02/12 19:39:02;;;;;;;154.10;68.00;;;;;;;6.22;100.00;102104.00;682709;1262;125072;-81
2023/02/12 19:54:07;;;;;;;103.50;35.40;;;;;;;6.45;100.00;102091.96;682823;1259;139280;-81
2023/02/12 20:09:12;;;;;;;105.70;44.40;;;;;;;6.65;100.00;102090.23;683010;1260;139508;-84
2023/02/12 20:24:15;;;;;;;57.30;23.00;;;;;;;6.77;100.00;102079.62;682865;1259;139376;-81
2023/02/12 20:39:19;;;;;;;74.00;26.20;;;;;;;6.94;100.00;102075.23;682634;1258;138875;-81
2023/02/12 20:54:24;;;;;;;56.10;21.40;;;;;;;6.91;100.00;102074.84;682346;1260;174215;-81
2023/02/12 21:09:28;;;;;;;75.50;27.10;;;;;;;6.97;100.00;102076.48;682532;1262;139012;-81
2023/02/12 21:24:32;;;;;;;51.50;21.00;;;;;;;7.03;100.00;102065.48;682408;1262;139164;-81
2023/02/12 21:39:36;;;;;;;45.70;19.10;;;;;;;7.07;100.00;102067.87;682584;1262;138941;-82
2023/02/12 21:54:39;;;;;;;48.00;18.90;;;;;;;7.09;100.00;102073.90;682834;1263;139428;-82
2023/02/12 22:09:43;;;;;;;60.10;22.70;;;;;;;7.01;100.00;102071.48;682563;1259;138882;-82
2023/02/12 22:24:46;;;;;;;44.60;18.20;;;;;;;7.17;100.00;102075.11;682635;1262;138952;-82
2023/02/12 22:39:49;;;;;;;45.90;17.20;;;;;;;7.12;100.00;102072.52;682493;1262;139334;-80
2023/02/12 22:54:53;;;;;;;49.80;18.50;;;;;;;7.15;100.00;102063.17;682815;1263;139769;-82
2023/02/12 23:09:56;;;;;;;31.20;13.20;;;;;;;7.13;100.00;102042.93;682913;1263;138901;-81
2023/02/12 23:25:00;;;;;;;73.90;25.30;;;;;;;7.22;100.00;102032.59;682775;1260;138831;-80
2023/02/12 23:40:05;;;;;;;39.00;14.70;;;;;;;7.25;100.00;102020.09;682907;1263;139231;-82
2023/02/12 23:55:08;;;;;;;29.30;12.20;;;;;;;7.20;100.00;101999.77;682567;1263;139673;-82
